sensor_id;sensor_type;location;lat;lon;timestamp;pressure;altitude;pressure_sealevel;temperature;humidity
1832;BME280;1680;48.106;11.708;2023-04-28T00:00:17;95499.03;;;8.41;100.00
1832;BME280;1680;48.106;11.708;2023-04-28T00:02:44;95499.03;;;8.41;100.00
1832;BME280;1680;48.106;11.708;2023-04-28T00:05:12;95498.06;;;8.35;100.00
1832;BME280;1680;48.106;11.708;2023-04-28T00:07:39;95498.06;;;8.35;100.00
1832;BME280;1680;48.106;11.708;2023-04-28T00:10:08;95492.19;;;8.40;100.00
1832;BME280;1680;48.106;11.708;2023-04-28T00:12:35;95499.47;;;8.38;100.00
1832;BME280;1680;48.106;11.708;2023-04-28T00:15:05;95484.97;;;8.42;100.00
1832;BME280;1680;48.106;11.708;2023-04-28T00:17:32;95497.03;;;8.43;100.00
1832;BME280;1680;48.106;11.708;2023-04-28T00:19:59;95485.97;;;8.41;100.00
1832;BME280;1680;48.106;11.708;2023-04-28T00:22:26;95488.53;;;8.47;100.00
1832;BME280;1680;48.106;11.708;2023-04-28T00:24:54;95478.09;;;8.47;100.00
1832;BME280;1680;48.106;11.708;2023-04-28T00:27:21;95480.09;;;8.52;100.00
1832;BME280;1680;48.106;11.708;2023-04-28T00:29:50;95478.09;;;8.47;100.00
1832;BME280;1680;48.106;11.708;2023-04-28T00:32:18;95476.06;;;8.49;100.00
1832;BME280;1680;48.106;11.708;2023-04-28T00:34:46;95469.41;;;8.53;100.00
1832;BME280;1680;48.106;11.708;2023-04-28T00:37:13;95438.66;;;8.24;100.00
1832;BME280;1680;48.106;11.708;2023-04-28T00:39:40;95466.38;;;8.56;100.00
1832;BME280;1680;48.106;11.708;2023-04-28T00:42:11;95467.72;;;8.65;100.00
1832;BME280;1680;48.106;11.708;2023-04-28T00:44:38;95463.34;;;8.59;100.00
1832;BME280;1680;48.106;11.708;2023-04-28T00:47:06;95462.75;;;8.57;100.00
1832;BME280;1680;48.106;11.708;2023-04-28T00:49:35;95458.72;;;8.61;100.00
1832;BME280;1680;48.106;11.708;2023-04-28T00:52:04;95458.50;;;8.63;100.00
1832;BME280;1680;48.106;11.708;2023-04-28T00:54:32;95457.53;;;8.57;100.00
1832;BME280;1680;48.106;11.708;2023-04-28T00:57:00;95460.16;;;8.57;100.00
1832;BME280;1680;48.106;11.708;2023-04-28T00:59:29;95453.50;;;8.61;100.00
1832;BME280;1680;48.106;11.708;2023-04-28T01:01:56;95458.31;;;8.58;100.00
1832;BME280;1680;48.106;11.708;2023-04-28T01:04:28;95465.16;;;8.59;100.00
1832;BME280;1680;48.106;11.708;2023-04-28T01:06:57;95460.69;;;8.66;100.00
1832;BME280;1680;48.106;11.708;2023-04-28T01:09:25;95448.84;;;8.63;100.00
1832;BME280;1680;48.106;11.708;2023-04-28T01:11:53;95441.44;;;8.60;100.00
1832;BME280;1680;48.106;11.708;2023-04-28T01:14:20;95438.97;;;8.65;100.00
1832;BME280;1680;48.106;11.708;2023-04-28T01:16:47;95447.16;;;8.75;100.00
1832;BME280;1680;48.106;11.708;2023-04-28T01:19:19;95437.72;;;8.74;100.00
1832;BME280;1680;48.106;11.708;2023-04-28T01:21:47;95437.72;;;8.74;100.00
1832;BME280;1680;48.106;11.708;2023-04-28T01:24:17;95434.34;;;8.67;100.00
1832;BME280;1680;48.106;11.708;2023-04-28T01:26:44;95435.88;;;8.74;100.00
1832;BME280;1680;48.106;11.708;2023-04-28T01:29:12;95431.28;;;8.70;100.00
1832;BME280;1680;48.106;11.708;2023-04-28T01:31:39;95429.63;;;8.75;100.00
1832;BME280;1680;48.106;11.708;2023-04-28T01:34:06;95430.28;;;8.71;100.00
1832;BME280;1680;48.106;11.708;2023-04-28T01:36:33;95419.84;;;8.71;100.00
1832;BME280;1680;48.106;11.708;2023-04-28T01:39:00;95418.19;;;8.76;100.00
1832;BME280;1680;48.106;11.708;2023-04-28T01:41:29;95421.16;;;8.80;100.00
1832;BME280;1680;48.106;11.708;2023-04-28T01:43:58;95422.34;;;8.84;100.00
1832;BME280;1680;48.106;11.708;2023-04-28T01:46:26;95422.56;;;8.82;100.00
1832;BME280;1680;48.106;11.708;2023-04-28T01:48:55;95419.50;;;8.85;100.00
1832;BME280;1680;48.106;11.708;2023-04-28T01:51:22;95413.47;;;8.85;100.00
1832;BME280;1680;48.106;11.708;2023-04-28T01:53:50;95418.22;;;8.94;100.00
1832;BME280;1680;48.106;11.708;2023-04-28T01:56:17;95409.19;;;8.90;100.00
1832;BME280;1680;48.106;11.708;2023-04-28T01:58:45;95418.75;;;9.03;100.00
1832;BME280;1680;48.106;11.708;2023-04-28T02:01:13;95423.97;;;9.03;100.00
1832;BME280;1680;48.106;11.708;2023-04-28T02:03:40;95416.69;;;8.87;100.00
1832;BME280;1680;48.106;11.708;2023-04-28T02:06:07;95425.84;;;8.96;100.00
1832;BME280;1680;48.106;11.708;2023-04-28T02:08:34;95416.91;;;9.03;100.00
1832;BME280;1680;48.106;11.708;2023-04-28T02:11:01;95422.09;;;9.10;100.00
1832;BME280;1680;48.106;11.708;2023-04-28T02:13:29;95424.50;;;9.11;100.00
1832;BME280;1680;48.106;11.708;2023-04-28T02:16:00;95424.94;;;9.08;100.00
1832;BME280;1680;48.106;11.708;2023-04-28T02:18:27;95423.09;;;9.09;100.00
1832;BME280;1680;48.106;11.708;2023-04-28T02:20:58;95424.56;;;9.05;100.00
1832;BME280;1680;48.106;11.708;2023-04-28T02:23:28;95429.34;;;9.08;100.00
1832;BME280;1680;48.106;11.708;2023-04-28T02:25:59;95426.25;;;9.17;100.00
1832;BME280;1680;48.106;11.708;2023-04-28T02:28:27;95421.75;;;9.24;100.00
1832;BME280;1680;48.106;11.708;2023-04-28T02:31:04;95420.81;;;9.19;100.00
1832;BME280;1680;48.106;11.708;2023-04-28T02:33:31;95431.63;;;9.22;100.00
1832;BME280;1680;48.106;11.708;2023-04-28T02:36:00;95416.56;;;9.00;100.00
1832;BME280;1680;48.106;11.708;2023-04-28T02:38:27;95440.72;;;9.20;100.00
1832;BME280;1680;48.106;11.708;2023-04-28T02:40:57;95447.09;;;9.24;100.00
1832;BME280;1680;48.106;11.708;2023-04-28T02:43:25;95442.38;;;9.14;100.00
1832;BME280;1680;48.106;11.708;2023-04-28T02:45:52;95417.13;;;9.26;100.00
1832;BME280;1680;48.106;11.708;2023-04-28T02:48:21;95397.72;;;9.34;100.00
1832;BME280;1680;48.106;11.708;2023-04-28T02:50:48;95393.06;;;9.18;100.00
1832;BME280;1680;48.106;11.708;2023-04-28T02:53:17;95398.22;;;9.24;100.00
1832;BME280;1680;48.106;11.708;2023-04-28T02:55:44;95411.94;;;9.20;100.00
1832;BME280;1680;48.106;11.708;2023-04-28T02:58:12;95394.78;;;9.06;100.00
1832;BME280;1680;48.106;11.708;2023-04-28T03:00:39;95410.34;;;9.19;100.00
1832;BME280;1680;48.106;11.708;2023-04-28T03:03:06;95410.72;;;9.22;100.00
1832;BME280;1680;48.106;11.708;2023-04-28T03:05:35;95398.28;;;9.18;100.00
1832;BME280;1680;48.106;11.708;2023-04-28T03:08:02;95396.69;;;9.17;100.00
1832;BME280;1680;48.106;11.708;2023-04-28T03:10:30;95394.94;;;9.29;100.00
1832;BME280;1680;48.106;11.708;2023-04-28T03:12:57;95380.41;;;9.33;100.00
1832;BME280;1680;48.106;11.708;2023-04-28T03:15:24;95380.03;;;9.29;100.00
1832;BME280;1680;48.106;11.708;2023-04-28T03:17:52;95379.66;;;9.26;100.00
1832;BME280;1680;48.106;11.708;2023-04-28T03:20:19;95368.94;;;9.34;100.00
1832;BME280;1680;48.106;11.708;2023-04-28T03:22:47;95369.63;;;9.41;100.00
1832;BME280;1680;48.106;11.708;2023-04-28T03:25:14;95375.88;;;9.40;100.00
1832;BME280;1680;48.106;11.708;2023-04-28T03:27:41;95376.31;;;9.37;100.00
1832;BME280;1680;48.106;11.708;2023-04-28T03:30:09;95376.47;;;9.42;100.00
1832;BME280;1680;48.106;11.708;2023-04-28T03:32:36;95371.31;;;9.53;100.00
1832;BME280;1680;48.106;11.708;2023-04-28T03:35:05;95384.59;;;9.52;100.00
1832;BME280;1680;48.106;11.708;2023-04-28T03:37:32;95373.34;;;9.51;100.00
1832;BME280;1680;48.106;11.708;2023-04-28T03:40:01;95382.22;;;9.50;100.00
1832;BME280;1680;48.106;11.708;2023-04-28T03:42:28;95393.03;;;9.54;100.00
1832;BME280;1680;48.106;11.708;2023-04-28T03:44:55;95381.44;;;9.50;100.00
1832;BME280;1680;48.106;11.708;2023-04-28T03:47:22;95374.88;;;9.59;100.00
1832;BME280;1680;48.106;11.708;2023-04-28T03:49:50;95371.22;;;9.60;100.00
1832;BME280;1680;48.106;11.708;2023-04-28T03:52:17;95372.97;;;9.65;100.00
1832;BME280;1680;48.106;11.708;2023-04-28T03:54:44;95374.63;;;9.60;100.00
1832;BME280;1680;48.106;11.708;2023-04-28T03:57:13;95381.84;;;9.64;100.00
1832;BME280;1680;48.106;11.708;2023-04-28T03:59:40;95384.91;;;9.62;100.00
1832;BME280;1680;48.106;11.708;2023-04-28T04:02:07;95383.03;;;9.51;100.00
1832;BME280;1680;48.106;11.708;2023-04-28T04:04:34;95386.94;;;9.60;100.00
1832;BME280;1680;48.106;11.708;2023-04-28T04:07:01;95388.97;;;9.58;100.00
1832;BME280;1680;48.106;11.708;2023-04-28T04:09:29;95384.00;;;9.67;100.00
1832;BME280;1680;48.106;11.708;2023-04-28T04:11:56;95391.44;;;9.70;100.00
1832;BME280;1680;48.106;11.708;2023-04-28T04:14:26;95383.56;;;9.70;100.00
1832;BME280;1680;48.106;11.708;2023-04-28T04:16:56;95386.50;;;9.63;100.00
1832;BME280;1680;48.106;11.708;2023-04-28T04:19:23;95387.38;;;9.57;100.00
1832;BME280;1680;48.106;11.708;2023-04-28T04:21:53;95383.03;;;9.51;100.00
1832;BME280;1680;48.106;11.708;2023-04-28T04:24:27;95384.91;;;9.62;100.00
1832;BME280;1680;48.106;11.708;2023-04-28T04:26:56;95388.53;;;9.61;100.00
1832;BME280;1680;48.106;11.708;2023-04-28T04:29:24;95381.72;;;9.60;100.00
1832;BME280;1680;48.106;11.708;2023-04-28T04:31:52;95376.47;;;9.60;100.00
1832;BME280;1680;48.106;11.708;2023-04-28T04:34:20;95363.88;;;9.68;100.00
1832;BME280;1680;48.106;11.708;2023-04-28T04:36:47;95358.56;;;9.74;100.00
1832;BME280;1680;48.106;11.708;2023-04-28T04:39:14;95344.88;;;9.72;100.00
1832;BME280;1680;48.106;11.708;2023-04-28T04:41:41;95351.28;;;9.76;100.00
1832;BME280;1680;48.106;11.708;2023-04-28T04:44:08;95359.16;;;9.59;100.00
1832;BME280;1680;48.106;11.708;2023-04-28T04:46:35;95376.75;;;9.69;100.00
1832;BME280;1680;48.106;11.708;2023-04-28T04:49:04;95377.91;;;9.73;100.00
1832;BME280;1680;48.106;11.708;2023-04-28T04:51:31;95384.56;;;9.87;100.00
1832;BME280;1680;48.106;11.708;2023-04-28T04:53:58;95379.47;;;9.92;100.00
1832;BME280;1680;48.106;11.708;2023-04-28T04:56:26;95381.94;;;10.05;100.00
1832;BME280;1680;48.106;11.708;2023-04-28T04:58:56;95379.00;;;10.13;100.00
1832;BME280;1680;48.106;11.708;2023-04-28T05:01:23;95376.28;;;10.08;100.00
1832;BME280;1680;48.106;11.708;2023-04-28T05:03:51;95371.38;;;10.12;100.00
1832;BME280;1680;48.106;11.708;2023-04-28T05:06:19;95376.63;;;10.12;100.00
1832;BME280;1680;48.106;11.708;2023-04-28T05:08:46;95367.63;;;10.19;100.00
1832;BME280;1680;48.106;11.708;2023-04-28T05:11:14;95380.66;;;10.26;100.00
1832;BME280;1680;48.106;11.708;2023-04-28T05:13:41;95383.31;;;10.37;100.00
1832;BME280;1680;48.106;11.708;2023-04-28T05:16:08;95390.25;;;10.32;100.00
1832;BME280;1680;48.106;11.708;2023-04-28T05:18:35;95391.00;;;10.21;100.00
1832;BME280;1680;48.106;11.708;2023-04-28T05:21:03;95389.91;;;10.40;100.00
1832;BME280;1680;48.106;11.708;2023-04-28T05:23:31;95390.34;;;10.25;100.00
1832;BME280;1680;48.106;11.708;2023-04-28T05:25:58;95396.59;;;10.24;100.00
1832;BME280;1680;48.106;11.708;2023-04-28T05:28:27;95395.00;;;10.23;100.00
1832;BME280;1680;48.106;11.708;2023-04-28T05:30:54;95394.09;;;10.29;100.00
1832;BME280;1680;48.106;11.708;2023-04-28T05:33:21;95394.63;;;10.20;100.00
1832;BME280;1680;48.106;11.708;2023-04-28T05:35:49;95398.66;;;10.22;100.00
1832;BME280;1680;48.106;11.708;2023-04-28T05:38:16;95404.31;;;10.19;100.00
1832;BME280;1680;48.106;11.708;2023-04-28T05:40:44;95400.69;;;10.20;100.00
1832;BME280;1680;48.106;11.708;2023-04-28T05:43:12;95402.63;;;10.25;100.00
1832;BME280;1680;48.106;11.708;2023-04-28T05:45:39;95401.59;;;10.26;100.00
1832;BME280;1680;48.106;11.708;2023-04-28T05:48:06;95401.72;;;10.19;100.00
1832;BME280;1680;48.106;11.708;2023-04-28T05:50:33;95398.22;;;10.25;100.00
1832;BME280;1680;48.106;11.708;2023-04-28T05:53:00;95407.53;;;10.21;100.00
1832;BME280;1680;48.106;11.708;2023-04-28T05:55:28;95406.63;;;10.27;100.00
1832;BME280;1680;48.106;11.708;2023-04-28T05:57:57;95406.19;;;10.30;100.00
1832;BME280;1680;48.106;11.708;2023-04-28T06:00:24;95405.28;;;10.36;100.00
1832;BME280;1680;48.106;11.708;2023-04-28T06:02:51;95397.09;;;10.33;100.00
1832;BME280;1680;48.106;11.708;2023-04-28T06:05:19;95395.41;;;10.38;100.00
1832;BME280;1680;48.106;11.708;2023-04-28T06:07:46;95399.03;;;10.37;100.00
1832;BME280;1680;48.106;11.708;2023-04-28T06:10:13;95401.56;;;10.44;100.00
1832;BME280;1680;48.106;11.708;2023-04-28T06:12:41;95402.53;;;10.31;100.00
1832;BME280;1680;48.106;11.708;2023-04-28T06:15:10;95436.38;;;10.62;100.00
1832;BME280;1680;48.106;11.708;2023-04-28T06:17:37;95422.78;;;10.54;100.00
1832;BME280;1680;48.106;11.708;2023-04-28T06:20:05;95427.44;;;10.40;100.00
1832;BME280;1680;48.106;11.708;2023-04-28T06:22:34;95414.28;;;10.29;100.00
1832;BME280;1680;48.106;11.708;2023-04-28T06:25:02;95402.88;;;10.23;100.00
1832;BME280;1680;48.106;11.708;2023-04-28T06:27:29;95407.00;;;10.31;100.00
1832;BME280;1680;48.106;11.708;2023-04-28T06:29:57;95412.56;;;10.34;100.00
1832;BME280;1680;48.106;11.708;2023-04-28T06:32:25;95407.47;;;10.39;100.00
1832;BME280;1680;48.106;11.708;2023-04-28T06:34:53;95409.19;;;10.45;100.00
1832;BME280;1680;48.106;11.708;2023-04-28T06:37:20;95410.19;;;10.44;100.00
1832;BME280;1680;48.106;11.708;2023-04-28T06:39:47;95407.28;;;10.52;100.00
1832;BME280;1680;48.106;11.708;2023-04-28T06:42:14;95394.28;;;10.57;100.00
1832;BME280;1680;48.106;11.708;2023-04-28T06:44:43;95401.69;;;10.60;100.00
1832;BME280;1680;48.106;11.708;2023-04-28T06:47:10;95395.44;;;10.61;100.00
1832;BME280;1680;48.106;11.708;2023-04-28T06:49:39;95386.34;;;10.63;100.00
1832;BME280;1680;48.106;11.708;2023-04-28T06:52:08;95392.16;;;10.77;100.00
1832;BME280;1680;48.106;11.708;2023-04-28T06:54:35;95384.50;;;10.87;100.00
1832;BME280;1680;48.106;11.708;2023-04-28T06:57:02;95379.16;;;11.05;100.00
1832;BME280;1680;48.106;11.708;2023-04-28T06:59:30;95374.13;;;11.26;100.00
1832;BME280;1680;48.106;11.708;2023-04-28T07:01:57;95366.34;;;11.43;100.00
1832;BME280;1680;48.106;11.708;2023-04-28T07:04:24;95374.75;;;11.67;100.00
1832;BME280;1680;48.106;11.708;2023-04-28T07:06:52;95372.72;;;11.97;100.00
1832;BME280;1680;48.106;11.708;2023-04-28T07:09:20;95374.03;;;12.11;100.00
1832;BME280;1680;48.106;11.708;2023-04-28T07:11:47;95377.09;;;12.20;100.00
1832;BME280;1680;48.106;11.708;2023-04-28T07:14:14;95375.53;;;12.35;100.00
1832;BME280;1680;48.106;11.708;2023-04-28T07:16:41;95361.44;;;12.41;100.00
1832;BME280;1680;48.106;11.708;2023-04-28T07:19:08;95369.72;;;12.50;100.00
1832;BME280;1680;48.106;11.708;2023-04-28T07:21:36;95366.22;;;12.44;100.00
1832;BME280;1680;48.106;11.708;2023-04-28T07:24:05;95373.53;;;12.42;100.00
1832;BME280;1680;48.106;11.708;2023-04-28T07:26:32;95360.81;;;12.51;100.00
1832;BME280;1680;48.106;11.708;2023-04-28T07:28:59;95358.91;;;12.46;100.00
1832;BME280;1680;48.106;11.708;2023-04-28T07:31:27;95358.00;;;12.41;100.00
1832;BME280;1680;48.106;11.708;2023-04-28T07:33:54;95353.16;;;12.49;100.00
1832;BME280;1680;48.106;11.708;2023-04-28T07:36:21;95354.91;;;12.60;100.00
1832;BME280;1680;48.106;11.708;2023-04-28T07:38:48;95351.06;;;12.51;100.00
1832;BME280;1680;48.106;11.708;2023-04-28T07:41:17;95355.38;;;12.41;100.00
1832;BME280;1680;48.106;11.708;2023-04-28T07:43:44;95352.03;;;12.45;100.00
1832;BME280;1680;48.106;11.708;2023-04-28T07:46:11;95356.16;;;12.41;100.00
1832;BME280;1680;48.106;11.708;2023-04-28T07:48:39;95346.94;;;12.39;100.00
1832;BME280;1680;48.106;11.708;2023-04-28T07:51:07;95308.78;;;12.08;100.00
1832;BME280;1680;48.106;11.708;2023-04-28T07:53:34;95352.03;;;12.45;100.00
1832;BME280;1680;48.106;11.708;2023-04-28T07:56:02;95357.63;;;12.65;100.00
1832;BME280;1680;48.106;11.708;2023-04-28T07:58:31;95355.28;;;12.52;100.00
1832;BME280;1680;48.106;11.708;2023-04-28T08:00:58;95368.47;;;12.68;100.00
1832;BME280;1680;48.106;11.708;2023-04-28T08:03:25;95362.34;;;12.63;100.00
1832;BME280;1680;48.106;11.708;2023-04-28T08:05:53;95371.97;;;12.57;100.00
1832;BME280;1680;48.106;11.708;2023-04-28T08:08:20;95366.41;;;12.70;100.00
1832;BME280;1680;48.106;11.708;2023-04-28T08:10:48;95364.97;;;12.63;100.00
1832;BME280;1680;48.106;11.708;2023-04-28T08:13:16;95366.63;;;12.69;100.00
1832;BME280;1680;48.106;11.708;2023-04-28T08:15:46;95364.47;;;12.66;100.00
1832;BME280;1680;48.106;11.708;2023-04-28T08:18:13;95366.06;;;12.67;100.00
1832;BME280;1680;48.106;11.708;2023-04-28T08:20:41;95359.94;;;12.78;100.00
1832;BME280;1680;48.106;11.708;2023-04-28T08:23:08;95371.66;;;12.87;100.00
1832;BME280;1680;48.106;11.708;2023-04-28T08:25:35;95361.56;;;12.95;100.00
1832;BME280;1680;48.106;11.708;2023-04-28T08:28:03;95362.44;;;13.01;100.00
1832;BME280;1680;48.106;11.708;2023-04-28T08:30:33;95360.44;;;13.08;100.00
1832;BME280;1680;48.106;11.708;2023-04-28T08:33:01;95367.56;;;13.29;100.00
1832;BME280;1680;48.106;11.708;2023-04-28T08:35:29;95362.25;;;13.24;100.00
1832;BME280;1680;48.106;11.708;2023-04-28T08:37:56;95358.09;;;13.11;100.00
1832;BME280;1680;48.106;11.708;2023-04-28T08:40:23;95353.50;;;13.02;100.00
1832;BME280;1680;48.106;11.708;2023-04-28T08:42:51;95358.53;;;13.03;100.00
1832;BME280;1680;48.106;11.708;2023-04-28T08:45:18;95349.69;;;12.93;100.00
1832;BME280;1680;48.106;11.708;2023-04-28T08:47:48;95336.09;;;13.01;100.00
1832;BME280;1680;48.106;11.708;2023-04-28T08:50:20;95341.84;;;12.98;100.00
1832;BME280;1680;48.106;11.708;2023-04-28T08:52:51;95340.56;;;12.84;100.00
1832;BME280;1680;48.106;11.708;2023-04-28T08:55:19;95351.16;;;12.89;100.00
1832;BME280;1680;48.106;11.708;2023-04-28T08:57:48;95339.63;;;12.90;100.00
1832;BME280;1680;48.106;11.708;2023-04-28T09:00:16;95332.03;;;12.93;100.00
1832;BME280;1680;48.106;11.708;2023-04-28T09:02:44;95332.03;;;12.93;100.00
1832;BME280;1680;48.106;11.708;2023-04-28T09:05:12;95336.53;;;12.93;100.00
1832;BME280;1680;48.106;11.708;2023-04-28T09:07:44;95332.59;;;12.95;100.00
1832;BME280;1680;48.106;11.708;2023-04-28T09:10:18;95331.47;;;13.08;100.00
1832;BME280;1680;48.106;11.708;2023-04-28T09:12:46;95330.66;;;13.07;100.00
1832;BME280;1680;48.106;11.708;2023-04-28T09:15:27;95326.13;;;13.03;100.00
1832;BME280;1680;48.106;11.708;2023-04-28T09:17:55;95335.84;;;13.19;100.00
1832;BME280;1680;48.106;11.708;2023-04-28T09:20:24;95320.03;;;13.19;100.00
1832;BME280;1680;48.106;11.708;2023-04-28T09:22:55;95274.84;;;12.89;100.00
1832;BME280;1680;48.106;11.708;2023-04-28T09:25:22;95314.50;;;13.20;100.00
1832;BME280;1680;48.106;11.708;2023-04-28T09:27:51;95276.75;;;12.93;100.00
1832;BME280;1680;48.106;11.708;2023-04-28T09:30:18;95320.91;;;13.24;100.00
1832;BME280;1680;48.106;11.708;2023-04-28T09:33:03;95318.03;;;13.26;100.00
1832;BME280;1680;48.106;11.708;2023-04-28T09:35:38;95322.22;;;13.05;100.00
1832;BME280;1680;48.106;11.708;2023-04-28T09:38:07;95315.69;;;13.08;100.00
1832;BME280;1680;48.106;11.708;2023-04-28T09:40:48;95312.50;;;12.89;100.00
1832;BME280;1680;48.106;11.708;2023-04-28T09:43:24;95326.56;;;12.95;100.00
1832;BME280;1680;48.106;11.708;2023-04-28T09:45:51;95324.31;;;13.03;100.00
1832;BME280;1680;48.106;11.708;2023-04-28T09:48:26;95326.56;;;12.95;100.00
1832;BME280;1680;48.106;11.708;2023-04-28T09:50:54;95316.91;;;13.22;100.00
1832;BME280;1680;48.106;11.708;2023-04-28T09:53:23;95289.69;;;12.78;100.00
1832;BME280;1680;48.106;11.708;2023-04-28T09:55:51;95323.66;;;12.80;100.00
1832;BME280;1680;48.106;11.708;2023-04-28T09:58:20;95310.25;;;12.81;100.00
1832;BME280;1680;48.106;11.708;2023-04-28T10:00:51;95311.59;;;12.84;100.00
1832;BME280;1680;48.106;11.708;2023-04-28T10:03:21;95305.25;;;12.80;100.00
1832;BME280;1680;48.106;11.708;2023-04-28T10:05:50;95310.25;;;12.98;100.00
1832;BME280;1680;48.106;11.708;2023-04-28T10:08:18;95306.75;;;12.92;100.00
1832;BME280;1680;48.106;11.708;2023-04-28T10:10:48;95303.41;;;12.80;100.00
1832;BME280;1680;48.106;11.708;2023-04-28T10:13:17;95307.72;;;12.86;100.00
1832;BME280;1680;48.106;11.708;2023-04-28T10:15:45;95304.81;;;12.88;100.00
1832;BME280;1680;48.106;11.708;2023-04-28T10:18:13;95299.00;;;12.86;100.00
1832;BME280;1680;48.106;11.708;2023-04-28T10:20:43;95293.97;;;13.01;100.00
1832;BME280;1680;48.106;11.708;2023-04-28T10:23:29;95305.50;;;12.95;100.00
1832;BME280;1680;48.106;11.708;2023-04-28T10:25:59;95309.66;;;12.91;100.00
1832;BME280;1680;48.106;11.708;2023-04-28T10:28:28;95293.50;;;12.87;100.00
1832;BME280;1680;48.106;11.708;2023-04-28T10:31:08;95299.16;;;12.79;100.00
1832;BME280;1680;48.106;11.708;2023-04-28T10:33:37;95291.06;;;12.81;100.00
1832;BME280;1680;48.106;11.708;2023-04-28T10:36:05;95284.59;;;12.72;100.00
1832;BME280;1680;48.106;11.708;2023-04-28T10:38:33;95280.28;;;12.66;100.00
1832;BME280;1680;48.106;11.708;2023-04-28T10:41:01;95290.09;;;12.70;100.00
1832;BME280;1680;48.106;11.708;2023-04-28T10:43:33;95288.94;;;12.83;100.00
1832;BME280;1680;48.106;11.708;2023-04-28T10:46:03;95284.25;;;12.85;100.00
1832;BME280;1680;48.106;11.708;2023-04-28T10:48:52;95287.13;;;13.00;100.00
1832;BME280;1680;48.106;11.708;2023-04-28T10:51:27;95282.34;;;12.97;100.00
1832;BME280;1680;48.106;11.708;2023-04-28T10:54:13;95275.31;;;12.86;100.00
1832;BME280;1680;48.106;11.708;2023-04-28T10:57:20;95284.25;;;12.85;100.00
1832;BME280;1680;48.106;11.708;2023-04-28T10:59:48;95287.00;;;12.90;100.00
1832;BME280;1680;48.106;11.708;2023-04-28T11:02:37;95289.50;;;12.85;100.00
1832;BME280;1680;48.106;11.708;2023-04-28T11:05:12;95279.09;;;12.90;100.00
1832;BME280;1680;48.106;11.708;2023-04-28T11:07:40;95276.41;;;13.06;100.00
1832;BME280;1680;48.106;11.708;2023-04-28T11:13:29;95275.31;;;12.86;100.00
1832;BME280;1680;48.106;11.708;2023-04-28T11:16:01;95271.69;;;12.70;100.00
1832;BME280;1680;48.106;11.708;2023-04-28T11:18:31;95256.31;;;12.46;100.00
1832;BME280;1680;48.106;11.708;2023-04-28T11:21:09;95290.50;;;12.62;100.00
1832;BME280;1680;48.106;11.708;2023-04-28T11:23:38;95285.69;;;12.59;100.00
1832;BME280;1680;48.106;11.708;2023-04-28T11:26:05;95280.78;;;12.63;100.00
1832;BME280;1680;48.106;11.708;2023-04-28T11:28:34;95286.19;;;12.73;100.00
1832;BME280;1680;48.106;11.708;2023-04-28T11:31:11;95284.59;;;12.72;100.00
1832;BME280;1680;48.106;11.708;2023-04-28T11:33:44;95283.97;;;12.65;100.00
1832;BME280;1680;48.106;11.708;2023-04-28T11:36:27;95296.38;;;12.86;100.00
1832;BME280;1680;48.106;11.708;2023-04-28T11:38:56;95299.44;;;12.78;100.00
1832;BME280;1680;48.106;11.708;2023-04-28T11:41:24;95298.56;;;12.72;100.00
1832;BME280;1680;48.106;11.708;2023-04-28T11:43:53;95270.19;;;12.58;100.00
1832;BME280;1680;48.106;11.708;2023-04-28T11:46:21;95288.00;;;12.89;100.00
1832;BME280;1680;48.106;11.708;2023-04-28T11:48:59;95277.88;;;12.97;100.00
1832;BME280;1680;48.106;11.708;2023-04-28T11:51:30;95297.28;;;13.13;100.00
1832;BME280;1680;48.106;11.708;2023-04-28T11:53:59;95286.91;;;13.23;100.00
1832;BME280;1680;48.106;11.708;2023-04-28T11:56:27;95283.91;;;13.36;100.00
1832;BME280;1680;48.106;11.708;2023-04-28T11:59:04;95283.00;;;13.47;100.00
1832;BME280;1680;48.106;11.708;2023-04-28T12:01:33;95284.59;;;13.48;100.00
1832;BME280;1680;48.106;11.708;2023-04-28T12:04:02;95283.09;;;13.56;100.00
1832;BME280;1680;48.106;11.708;2023-04-28T12:06:29;95277.53;;;13.32;100.00
1832;BME280;1680;48.106;11.708;2023-04-28T12:08:57;95278.09;;;13.34;100.00
1832;BME280;1680;48.106;11.708;2023-04-28T12:11:29;95285.56;;;13.42;100.00
1832;BME280;1680;48.106;11.708;2023-04-28T12:14:05;95284.94;;;13.35;100.00
1832;BME280;1680;48.106;11.708;2023-04-28T12:16:40;95298.69;;;13.37;100.00
1832;BME280;1680;48.106;11.708;2023-04-28T12:19:13;95293.78;;;13.45;100.00
1832;BME280;1680;48.106;11.708;2023-04-28T12:21:41;95288.81;;;13.49;100.00
1832;BME280;1680;48.106;11.708;2023-04-28T12:24:15;95285.56;;;13.42;100.00
1832;BME280;1680;48.106;11.708;2023-04-28T12:26:43;95281.94;;;13.48;100.00
1832;BME280;1680;48.106;11.708;2023-04-28T12:29:35;95285.13;;;13.97;100.00
1832;BME280;1680;48.106;11.708;2023-04-28T12:32:07;95288.09;;;14.27;100.00
1832;BME280;1680;48.106;11.708;2023-04-28T12:34:36;95274.59;;;13.97;100.00
1832;BME280;1680;48.106;11.708;2023-04-28T12:37:04;95295.91;;;13.96;100.00
1832;BME280;1680;48.106;11.708;2023-04-28T12:39:32;95291.50;;;14.28;100.00
1832;BME280;1680;48.106;11.708;2023-04-28T12:41:59;95296.44;;;14.19;100.00
1832;BME280;1680;48.106;11.708;2023-04-28T12:44:31;95299.13;;;14.24;100.00
1832;BME280;1680;48.106;11.708;2023-04-28T12:47:02;95284.00;;;14.15;100.00
1832;BME280;1680;48.106;11.708;2023-04-28T12:49:29;95309.63;;;14.19;100.00
1832;BME280;1680;48.106;11.708;2023-04-28T12:51:56;95317.81;;;14.18;100.00
1832;BME280;1680;48.106;11.708;2023-04-28T12:54:24;95295.28;;;14.10;100.00
1832;BME280;1680;48.106;11.708;2023-04-28T12:56:51;95310.25;;;14.26;100.00
1832;BME280;1680;48.106;11.708;2023-04-28T12:59:19;95305.47;;;14.23;100.00
1832;BME280;1680;48.106;11.708;2023-04-28T13:01:47;95307.84;;;14.03;100.00
1832;BME280;1680;48.106;11.708;2023-04-28T13:04:16;95308.91;;;14.02;100.00
1832;BME280;1680;48.106;11.708;2023-04-28T13:06:43;95304.94;;;14.00;100.00
1832;BME280;1680;48.106;11.708;2023-04-28T13:09:10;95297.97;;;13.89;100.00
1832;BME280;1680;48.106;11.708;2023-04-28T13:11:40;95299.69;;;13.78;100.00
1832;BME280;1680;48.106;11.708;2023-04-28T13:14:08;95279.47;;;13.84;100.00
1832;BME280;1680;48.106;11.708;2023-04-28T13:16:35;95298.88;;;13.99;100.00